Time;durP1;ratioP1;P1;durP2;ratioP2;P2;SDS_P1;SDS_P2;PMS_P1;PMS_P2;Temp;Humidity;BMP_temperature;BMP_pressure;BME280_temperature;BME280_humidity;BME280_pressure;Samples;Min_cycle;Max_cycle;Signal;HPM_P1;HPM_P2
2019/10/29 00:01:00;;;;;;;28.55;19.5;;;;;;;8.21;100;95293.41;;;;
2019/10/29 00:02:01;;;;;;;28.55;19.5;;;;;;;8.21;100;95293.41;;;;
2019/10/29 00:03:02;;;;;;;28.55;19.5;;;;;;;8.21;100;95293.41;;;;
2019/10/29 00:04:04;;;;;;;28.55;19.5;;;;;;;8.21;100;95293.41;;;;
2019/10/29 00:05:05;;;;;;;28.55;19.5;;;;;;;8.21;100;95293.41;;;;
2019/10/29 00:06:08;;;;;;;28.55;19.5;;;;;;;8.21;100;95293.41;;;;
2019/10/29 00:07:09;;;;;;;28.55;19.5;;;;;;;8.21;100;95293.41;;;;
2019/10/29 00:08:10;;;;;;;28.55;19.5;;;;;;;8.21;100;95293.41;;;;
2019/10/29 00:09:11;;;;;;;32.8;20.9;;;;;;;8.14;100;95306.51;;;;
2019/10/29 00:10:12;;;;;;;32.8;20.9;;;;;;;8.14;100;95306.51;;;;
2019/10/29 00:11:14;;;;;;;32.8;20.9;;;;;;;8.14;100;95306.51;;;;
2019/10/29 00:12:15;;;;;;;32.8;20.9;;;;;;;8.14;100;95306.51;;;;
2019/10/29 00:13:16;;;;;;;32.8;20.9;;;;;;;8.14;100;95306.51;;;;
2019/10/29 00:14:17;;;;;;;32.8;20.9;;;;;;;8.14;100;95306.51;;;;
2019/10/29 00:15:18;;;;;;;32.8;20.9;;;;;;;8.14;100;95306.51;;;;
2019/10/29 00:16:20;;;;;;;32.8;20.9;;;;;;;8.14;100;95306.51;;;;
2019/10/29 00:17:22;;;;;;;32.8;20.9;;;;;;;8.14;100;95306.51;;;;
2019/10/29 00:18:23;;;;;;;32.8;20.9;;;;;;;8.14;100;95306.51;;;;
2019/10/29 00:19:24;;;;;;;33.30001;20.55;;;;;;;8.16;100;95297.28;;;;
2019/10/29 00:20:25;;;;;;;33.30001;20.55;;;;;;;8.16;100;95297.28;;;;
2019/10/29 00:21:26;;;;;;;33.30001;20.55;;;;;;;8.16;100;95297.28;;;;
2019/10/29 00:22:27;;;;;;;33.30001;20.55;;;;;;;8.16;100;95297.28;;;;
2019/10/29 00:23:29;;;;;;;33.30001;20.55;;;;;;;8.16;100;95297.28;;;;
2019/10/29 00:24:30;;;;;;;33.30001;20.55;;;;;;;8.16;100;95297.28;;;;
2019/10/29 00:25:31;;;;;;;33.30001;20.55;;;;;;;8.16;100;95297.28;;;;
2019/10/29 00:26:32;;;;;;;33.30001;20.55;;;;;;;8.16;100;95297.28;;;;
2019/10/29 00:27:33;;;;;;;33.30001;20.55;;;;;;;8.16;100;95297.28;;;;
2019/10/29 00:28:34;;;;;;;33.30001;20.55;;;;;;;8.16;100;95297.28;;;;
2019/10/29 00:29:35;;;;;;;33.30001;20.55;;;;;;;8.16;100;95297.28;;;;
2019/10/29 00:30:36;;;;;;;34.95;21.1;;;;;;;8.13;100;95283.33;;;;
2019/10/29 00:31:38;;;;;;;34.95;21.1;;;;;;;8.13;100;95283.33;;;;
2019/10/29 00:33:07;;;;;;;34.95;21.1;;;;;;;8.13;100;95283.33;;;;
2019/10/29 00:34:12;;;;;;;34.95;21.1;;;;;;;8.13;100;95283.33;;;;
2019/10/29 00:35:14;;;;;;;34.95;21.1;;;;;;;8.13;100;95283.33;;;;
2019/10/29 00:36:16;;;;;;;34.95;21.1;;;;;;;8.13;100;95283.33;;;;
2019/10/29 00:37:20;;;;;;;34.95;21.1;;;;;;;8.13;100;95283.33;;;;
2019/10/29 00:38:21;;;;;;;34.95;21.1;;;;;;;8.13;100;95283.33;;;;
2019/10/29 00:39:22;;;;;;;34.95;21.1;;;;;;;8.13;100;95283.33;;;;
2019/10/29 00:40:24;;;;;;;34.95;21.1;;;;;;;8.13;100;95283.33;;;;
2019/10/29 00:41:25;;;;;;;33.15;20.1;;;;;;;8.14;100;95276.09;;;;
2019/10/29 00:42:26;;;;;;;33.15;20.1;;;;;;;8.14;100;95276.09;;;;
2019/10/29 00:43:27;;;;;;;33.15;20.1;;;;;;;8.14;100;95276.09;;;;
2019/10/29 00:44:28;;;;;;;33.15;20.1;;;;;;;8.14;100;95276.09;;;;
2019/10/29 00:45:29;;;;;;;33.15;20.1;;;;;;;8.14;100;95276.09;;;;
2019/10/29 00:46:30;;;;;;;33.15;20.1;;;;;;;8.14;100;95276.09;;;;
2019/10/29 00:47:31;;;;;;;33.15;20.1;;;;;;;8.14;100;95276.09;;;;
2019/10/29 00:48:33;;;;;;;33.15;20.1;;;;;;;8.14;100;95276.09;;;;
2019/10/29 00:49:34;;;;;;;33.15;20.1;;;;;;;8.14;100;95276.09;;;;
2019/10/29 00:50:35;;;;;;;33.15;20.1;;;;;;;8.14;100;95276.09;;;;
2019/10/29 00:51:36;;;;;;;36.30001;20.35;;;;;;;8.07;100;95273.47;;;;
2019/10/29 00:52:37;;;;;;;36.30001;20.35;;;;;;;8.07;100;95273.47;;;;
2019/10/29 00:53:39;;;;;;;36.30001;20.35;;;;;;;8.07;100;95273.47;;;;
2019/10/29 00:54:40;;;;;;;36.30001;20.35;;;;;;;8.07;100;95273.47;;;;
2019/10/29 00:55:41;;;;;;;36.30001;20.35;;;;;;;8.07;100;95273.47;;;;
2019/10/29 00:56:42;;;;;;;36.30001;20.35;;;;;;;8.07;100;95273.47;;;;
2019/10/29 00:57:43;;;;;;;36.30001;20.35;;;;;;;8.07;100;95273.47;;;;
2019/10/29 00:58:44;;;;;;;36.30001;20.35;;;;;;;8.07;100;95273.47;;;;
2019/10/29 00:59:46;;;;;;;36.30001;20.35;;;;;;;8.07;100;95273.47;;;;
2019/10/29 01:00:47;;;;;;;36.30001;20.35;;;;;;;8.07;100;95273.47;;;;
2019/10/29 01:01:48;;;;;;;37.45;21.2;;;;;;;8.07;100;95271.3;;;;
2019/10/29 01:02:49;;;;;;;37.45;21.2;;;;;;;8.07;100;95271.3;;;;
2019/10/29 01:03:50;;;;;;;37.45;21.2;;;;;;;8.07;100;95271.3;;;;
2019/10/29 01:04:51;;;;;;;37.45;21.2;;;;;;;8.07;100;95271.3;;;;
2019/10/29 01:05:52;;;;;;;37.45;21.2;;;;;;;8.07;100;95271.3;;;;
2019/10/29 01:06:54;;;;;;;37.45;21.2;;;;;;;8.07;100;95271.3;;;;
2019/10/29 01:07:55;;;;;;;37.45;21.2;;;;;;;8.07;100;95271.3;;;;
2019/10/29 01:08:56;;;;;;;37.45;21.2;;;;;;;8.07;100;95271.3;;;;
2019/10/29 01:09:57;;;;;;;37.45;21.2;;;;;;;8.07;100;95271.3;;;;
2019/10/29 01:10:58;;;;;;;37.45;21.2;;;;;;;8.07;100;95271.3;;;;
2019/10/29 01:12:00;;;;;;;37.45;21.2;;;;;;;8.07;100;95271.3;;;;
2019/10/29 01:13:01;;;;;;;35.75;20.35;;;;;;;8.02;100;95275.59;;;;
2019/10/29 01:14:02;;;;;;;35.75;20.35;;;;;;;8.02;100;95275.59;;;;
2019/10/29 01:15:03;;;;;;;35.75;20.35;;;;;;;8.02;100;95275.59;;;;
2019/10/29 01:16:05;;;;;;;35.75;20.35;;;;;;;8.02;100;95275.59;;;;
2019/10/29 01:17:07;;;;;;;35.75;20.35;;;;;;;8.02;100;95275.59;;;;
2019/10/29 01:18:08;;;;;;;35.75;20.35;;;;;;;8.02;100;95275.59;;;;
2019/10/29 01:19:09;;;;;;;35.75;20.35;;;;;;;8.02;100;95275.59;;;;
2019/10/29 01:20:10;;;;;;;35.75;20.35;;;;;;;8.02;100;95275.59;;;;
2019/10/29 01:21:12;;;;;;;35.75;20.35;;;;;;;8.02;100;95275.59;;;;
2019/10/29 01:22:13;;;;;;;35.75;20.35;;;;;;;8.02;100;95275.59;;;;
2019/10/29 01:23:14;;;;;;;35.3;21.05;;;;;;;8.05;100;95271.53;;;;
2019/10/29 01:24:15;;;;;;;35.3;21.05;;;;;;;8.05;100;95271.53;;;;
2019/10/29 01:25:16;;;;;;;35.3;21.05;;;;;;;8.05;100;95271.53;;;;
2019/10/29 01:26:17;;;;;;;35.3;21.05;;;;;;;8.05;100;95271.53;;;;
2019/10/29 01:27:19;;;;;;;35.3;21.05;;;;;;;8.05;100;95271.53;;;;
2019/10/29 01:28:20;;;;;;;35.3;21.05;;;;;;;8.05;100;95271.53;;;;
2019/10/29 01:29:21;;;;;;;35.3;21.05;;;;;;;8.05;100;95271.53;;;;
2019/10/29 01:30:22;;;;;;;35.3;21.05;;;;;;;8.05;100;95271.53;;;;
2019/10/29 01:31:23;;;;;;;35.3;21.05;;;;;;;8.05;100;95271.53;;;;
2019/10/29 01:32:24;;;;;;;35.3;21.05;;;;;;;8.05;100;95271.53;;;;
2019/10/29 01:33:25;;;;;;;35.3;21.05;;;;;;;8.05;100;95271.53;;;;
2019/10/29 01:34:27;;;;;;;34.5;21.45;;;;;;;8.04;100;95264.61;;;;
2019/10/29 01:35:28;;;;;;;34.5;21.45;;;;;;;8.04;100;95264.61;;;;
2019/10/29 01:36:29;;;;;;;34.5;21.45;;;;;;;8.04;100;95264.61;;;;
2019/10/29 01:37:30;;;;;;;34.5;21.45;;;;;;;8.04;100;95264.61;;;;
2019/10/29 01:38:31;;;;;;;34.5;21.45;;;;;;;8.04;100;95264.61;;;;
2019/10/29 01:39:32;;;;;;;34.5;21.45;;;;;;;8.04;100;95264.61;;;;
2019/10/29 01:40:33;;;;;;;34.5;21.45;;;;;;;8.04;100;95264.61;;;;
2019/10/29 01:41:45;;;;;;;34.5;21.45;;;;;;;8.04;100;95264.61;;;;
2019/10/29 01:42:47;;;;;;;34.5;21.45;;;;;;;8.04;100;95264.61;;;;
2019/10/29 01:43:48;;;;;;;34.5;21.45;;;;;;;8.04;100;95264.61;;;;
2019/10/29 01:44:50;;;;;;;38.3;22.2;;;;;;;8.09;100;95255.77;;;;
2019/10/29 01:45:51;;;;;;;38.3;22.2;;;;;;;8.09;100;95255.77;;;;
2019/10/29 01:46:53;;;;;;;38.3;22.2;;;;;;;8.09;100;95255.77;;;;
2019/10/29 01:47:54;;;;;;;38.3;22.2;;;;;;;8.09;100;95255.77;;;;
2019/10/29 01:48:55;;;;;;;38.3;22.2;;;;;;;8.09;100;95255.77;;;;
2019/10/29 01:49:56;;;;;;;38.3;22.2;;;;;;;8.09;100;95255.77;;;;
2019/10/29 01:50:57;;;;;;;38.3;22.2;;;;;;;8.09;100;95255.77;;;;
2019/10/29 01:51:59;;;;;;;38.3;22.2;;;;;;;8.09;100;95255.77;;;;
2019/10/29 01:53:00;;;;;;;38.3;22.2;;;;;;;8.09;100;95255.77;;;;
2019/10/29 01:54:01;;;;;;;38.3;22.2;;;;;;;8.09;100;95255.77;;;;
2019/10/29 01:55:02;;;;;;;41.55;22.85;;;;;;;8.1;100;95250.27;;;;
2019/10/29 01:56:05;;;;;;;41.55;22.85;;;;;;;8.1;100;95250.27;;;;
2019/10/29 01:57:07;;;;;;;41.55;22.85;;;;;;;8.1;100;95250.27;;;;
2019/10/29 01:58:08;;;;;;;41.55;22.85;;;;;;;8.1;100;95250.27;;;;
2019/10/29 01:59:09;;;;;;;41.55;22.85;;;;;;;8.1;100;95250.27;;;;
2019/10/29 02:00:11;;;;;;;41.55;22.85;;;;;;;8.1;100;95250.27;;;;
2019/10/29 02:01:12;;;;;;;41.55;22.85;;;;;;;8.1;100;95250.27;;;;
2019/10/29 02:02:13;;;;;;;41.55;22.85;;;;;;;8.1;100;95250.27;;;;
2019/10/29 02:03:14;;;;;;;41.55;22.85;;;;;;;8.1;100;95250.27;;;;
2019/10/29 02:04:16;;;;;;;41.55;22.85;;;;;;;8.1;100;95250.27;;;;
2019/10/29 02:05:17;;;;;;;41.55;22.85;;;;;;;8.1;100;95250.27;;;;
2019/10/29 02:06:18;;;;;;;43.25;24.00001;;;;;;;8.16;100;95252.91;;;;
2019/10/29 02:07:20;;;;;;;43.25;24.00001;;;;;;;8.16;100;95252.91;;;;
2019/10/29 02:13:30;;;;;;;43.25;24.00001;;;;;;;8.16;100;95252.91;;;;
2019/10/29 02:14:31;;;;;;;43.25;24.00001;;;;;;;8.16;100;95252.91;;;;
2019/10/29 02:15:32;;;;;;;43.25;24.00001;;;;;;;8.16;100;95252.91;;;;
2019/10/29 02:16:33;;;;;;;50.45;25.75;;;;;;;8.15;100;95243.73;;;;
2019/10/29 02:17:34;;;;;;;50.45;25.75;;;;;;;8.15;100;95243.73;;;;
2019/10/29 02:18:36;;;;;;;50.45;25.75;;;;;;;8.15;100;95243.73;;;;
2019/10/29 02:19:37;;;;;;;50.45;25.75;;;;;;;8.15;100;95243.73;;;;
2019/10/29 02:20:38;;;;;;;50.45;25.75;;;;;;;8.15;100;95243.73;;;;
2019/10/29 02:21:41;;;;;;;50.45;25.75;;;;;;;8.15;100;95243.73;;;;
2019/10/29 02:22:42;;;;;;;50.45;25.75;;;;;;;8.15;100;95243.73;;;;
2019/10/29 02:23:43;;;;;;;50.45;25.75;;;;;;;8.15;100;95243.73;;;;
2019/10/29 02:24:44;;;;;;;50.45;25.75;;;;;;;8.15;100;95243.73;;;;
2019/10/29 02:25:45;;;;;;;50.45;25.75;;;;;;;8.15;100;95243.73;;;;
2019/10/29 02:26:47;;;;;;;46.9;25.15;;;;;;;8.18;100;95231.59;;;;
2019/10/29 02:27:48;;;;;;;46.9;25.15;;;;;;;8.18;100;95231.59;;;;
2019/10/29 02:28:49;;;;;;;46.9;25.15;;;;;;;8.18;100;95231.59;;;;
2019/10/29 02:29:50;;;;;;;46.9;25.15;;;;;;;8.18;100;95231.59;;;;
2019/10/29 02:30:52;;;;;;;46.9;25.15;;;;;;;8.18;100;95231.59;;;;
2019/10/29 02:31:53;;;;;;;46.9;25.15;;;;;;;8.18;100;95231.59;;;;
2019/10/29 02:32:54;;;;;;;46.9;25.15;;;;;;;8.18;100;95231.59;;;;
2019/10/29 02:33:55;;;;;;;46.9;25.15;;;;;;;8.18;100;95231.59;;;;
2019/10/29 02:34:56;;;;;;;46.9;25.15;;;;;;;8.18;100;95231.59;;;;
2019/10/29 02:35:57;;;;;;;46.9;25.15;;;;;;;8.18;100;95231.59;;;;
2019/10/29 02:36:59;;;;;;;46.9;25.15;;;;;;;8.18;100;95231.59;;;;
2019/10/29 02:38:00;;;;;;;40.15;22.95;;;;;;;8.17;100;95229.55;;;;
2019/10/29 02:39:01;;;;;;;40.15;22.95;;;;;;;8.17;100;95229.55;;;;
2019/10/29 02:40:04;;;;;;;40.15;22.95;;;;;;;8.17;100;95229.55;;;;
2019/10/29 02:41:06;;;;;;;40.15;22.95;;;;;;;8.17;100;95229.55;;;;
2019/10/29 02:42:07;;;;;;;40.15;22.95;;;;;;;8.17;100;95229.55;;;;
2019/10/29 02:43:09;;;;;;;40.15;22.95;;;;;;;8.17;100;95229.55;;;;
2019/10/29 02:44:10;;;;;;;40.15;22.95;;;;;;;8.17;100;95229.55;;;;
2019/10/29 02:45:11;;;;;;;40.15;22.95;;;;;;;8.17;100;95229.55;;;;
2019/10/29 02:46:13;;;;;;;40.15;22.95;;;;;;;8.17;100;95229.55;;;;
2019/10/29 02:47:14;;;;;;;40.15;22.95;;;;;;;8.17;100;95229.55;;;;
2019/10/29 02:48:15;;;;;;;29.55;18.7;;;;;;;8.21;100;95233.4;;;;
2019/10/29 02:49:16;;;;;;;29.55;18.7;;;;;;;8.21;100;95233.4;;;;
2019/10/29 02:50:18;;;;;;;29.55;18.7;;;;;;;8.21;100;95233.4;;;;
2019/10/29 02:51:19;;;;;;;29.55;18.7;;;;;;;8.21;100;95233.4;;;;
2019/10/29 02:52:20;;;;;;;29.55;18.7;;;;;;;8.21;100;95233.4;;;;
2019/10/29 02:53:21;;;;;;;29.55;18.7;;;;;;;8.21;100;95233.4;;;;
2019/10/29 02:54:23;;;;;;;29.55;18.7;;;;;;;8.21;100;95233.4;;;;
2019/10/29 02:55:24;;;;;;;29.55;18.7;;;;;;;8.21;100;95233.4;;;;
2019/10/29 02:56:25;;;;;;;29.55;18.7;;;;;;;8.21;100;95233.4;;;;
2019/10/29 02:57:26;;;;;;;29.55;18.7;;;;;;;8.21;100;95233.4;;;;
2019/10/29 02:58:28;;;;;;;27.25;18;;;;;;;8.13;100;95236.4;;;;
2019/10/29 02:59:29;;;;;;;27.25;18;;;;;;;8.13;100;95236.4;;;;
2019/10/29 03:00:30;;;;;;;27.25;18;;;;;;;8.13;100;95236.4;;;;
2019/10/29 03:01:32;;;;;;;27.25;18;;;;;;;8.13;100;95236.4;;;;
2019/10/29 03:02:33;;;;;;;27.25;18;;;;;;;8.13;100;95236.4;;;;
2019/10/29 03:03:34;;;;;;;27.25;18;;;;;;;8.13;100;95236.4;;;;
2019/10/29 03:04:36;;;;;;;27.25;18;;;;;;;8.13;100;95236.4;;;;
2019/10/29 03:05:37;;;;;;;27.25;18;;;;;;;8.13;100;95236.4;;;;
2019/10/29 03:06:38;;;;;;;27.25;18;;;;;;;8.13;100;95236.4;;;;
2019/10/29 03:07:39;;;;;;;27.25;18;;;;;;;8.13;100;95236.4;;;;
2019/10/29 03:08:40;;;;;;;27.25;18;;;;;;;8.13;100;95236.4;;;;
2019/10/29 03:09:42;;;;;;;30.9;19.1;;;;;;;8.07;100;95237.17;;;;
2019/10/29 03:10:43;;;;;;;30.9;19.1;;;;;;;8.07;100;95237.17;;;;
2019/10/29 03:11:44;;;;;;;30.9;19.1;;;;;;;8.07;100;95237.17;;;;
2019/10/29 03:12:45;;;;;;;30.9;19.1;;;;;;;8.07;100;95237.17;;;;
2019/10/29 03:13:47;;;;;;;30.9;19.1;;;;;;;8.07;100;95237.17;;;;
2019/10/29 03:14:48;;;;;;;30.9;19.1;;;;;;;8.07;100;95237.17;;;;
2019/10/29 03:15:49;;;;;;;30.9;19.1;;;;;;;8.07;100;95237.17;;;;
2019/10/29 03:16:50;;;;;;;30.9;19.1;;;;;;;8.07;100;95237.17;;;;
2019/10/29 03:17:51;;;;;;;30.9;19.1;;;;;;;8.07;100;95237.17;;;;
2019/10/29 03:18:52;;;;;;;30.9;19.1;;;;;;;8.07;100;95237.17;;;;
2019/10/29 03:19:53;;;;;;;28.55;17.95;;;;;;;8.03;100;95233.28;;;;
2019/10/29 03:20:55;;;;;;;28.55;17.95;;;;;;;8.03;100;95233.28;;;;
2019/10/29 03:21:56;;;;;;;28.55;17.95;;;;;;;8.03;100;95233.28;;;;
2019/10/29 03:22:57;;;;;;;28.55;17.95;;;;;;;8.03;100;95233.28;;;;
2019/10/29 03:23:58;;;;;;;28.55;17.95;;;;;;;8.03;100;95233.28;;;;
2019/10/29 03:25:00;;;;;;;28.55;17.95;;;;;;;8.03;100;95233.28;;;;
2019/10/29 03:26:01;;;;;;;28.55;17.95;;;;;;;8.03;100;95233.28;;;;
2019/10/29 03:27:02;;;;;;;28.55;17.95;;;;;;;8.03;100;95233.28;;;;
2019/10/29 03:28:03;;;;;;;28.55;17.95;;;;;;;8.03;100;95233.28;;;;
2019/10/29 03:29:05;;;;;;;28.55;17.95;;;;;;;8.03;100;95233.28;;;;
2019/10/29 03:30:06;;;;;;;28.55;17.95;;;;;;;8.03;100;95233.28;;;;
2019/10/29 03:31:07;;;;;;;36.3;20.55;;;;;;;8.05;100;95231.7;;;;
2019/10/29 03:32:08;;;;;;;36.3;20.55;;;;;;;8.05;100;95231.7;;;;
2019/10/29 03:33:10;;;;;;;36.3;20.55;;;;;;;8.05;100;95231.7;;;;
2019/10/29 03:34:11;;;;;;;36.3;20.55;;;;;;;8.05;100;95231.7;;;;
2019/10/29 03:35:12;;;;;;;36.3;20.55;;;;;;;8.05;100;95231.7;;;;
2019/10/29 03:36:13;;;;;;;36.3;20.55;;;;;;;8.05;100;95231.7;;;;
2019/10/29 03:37:14;;;;;;;36.3;20.55;;;;;;;8.05;100;95231.7;;;;
2019/10/29 03:38:15;;;;;;;36.3;20.55;;;;;;;8.05;100;95231.7;;;;
2019/10/29 03:39:17;;;;;;;36.3;20.55;;;;;;;8.05;100;95231.7;;;;
2019/10/29 03:40:18;;;;;;;36.3;20.55;;;;;;;8.05;100;95231.7;;;;
2019/10/29 03:41:19;;;;;;;42.8;22.15;;;;;;;8;100;95243.14;;;;
2019/10/29 03:42:21;;;;;;;42.8;22.15;;;;;;;8;100;95243.14;;;;
2019/10/29 03:43:23;;;;;;;42.8;22.15;;;;;;;8;100;95243.14;;;;
2019/10/29 03:44:24;;;;;;;42.8;22.15;;;;;;;8;100;95243.14;;;;
2019/10/29 03:45:27;;;;;;;42.8;22.15;;;;;;;8;100;95243.14;;;;
2019/10/29 03:46:35;;;;;;;42.8;22.15;;;;;;;8;100;95243.14;;;;
2019/10/29 03:47:44;;;;;;;42.8;22.15;;;;;;;8;100;95243.14;;;;
2019/10/29 03:48:50;;;;;;;42.8;22.15;;;;;;;8;100;95243.14;;;;
2019/10/29 03:49:53;;;;;;;42.8;22.15;;;;;;;8;100;95243.14;;;;
2019/10/29 03:51:02;;;;;;;42.8;22.15;;;;;;;8;100;95243.14;;;;
2019/10/29 03:52:16;;;;;;;61.2;24.5;;;;;;;8.02;100;95238.47;;;;
2019/10/29 03:53:27;;;;;;;61.2;24.5;;;;;;;8.02;100;95238.47;;;;
2019/10/29 03:54:44;;;;;;;61.2;24.5;;;;;;;8.02;100;95238.47;;;;
2019/10/29 03:56:43;;;;;;;61.2;24.5;;;;;;;8.02;100;95238.47;;;;
2019/10/29 03:57:52;;;;;;;61.2;24.5;;;;;;;8.02;100;95238.47;;;;
2019/10/29 03:59:03;;;;;;;61.2;24.5;;;;;;;8.02;100;95238.47;;;;
2019/10/29 04:00:17;;;;;;;61.2;24.5;;;;;;;8.02;100;95238.47;;;;
2019/10/29 04:01:20;;;;;;;61.2;24.5;;;;;;;8.02;100;95238.47;;;;
2019/10/29 04:02:22;;;;;;;73.2;27.25;;;;;;;7.95;100;95238;;;;
2019/10/29 04:03:26;;;;;;;73.2;27.25;;;;;;;7.95;100;95238;;;;
2019/10/29 04:04:27;;;;;;;73.2;27.25;;;;;;;7.95;100;95238;;;;
2019/10/29 04:05:28;;;;;;;73.2;27.25;;;;;;;7.95;100;95238;;;;
2019/10/29 04:06:30;;;;;;;73.2;27.25;;;;;;;7.95;100;95238;;;;
2019/10/29 04:07:31;;;;;;;73.2;27.25;;;;;;;7.95;100;95238;;;;
2019/10/29 04:08:33;;;;;;;73.2;27.25;;;;;;;7.95;100;95238;;;;
2019/10/29 04:09:34;;;;;;;73.2;27.25;;;;;;;7.95;100;95238;;;;
2019/10/29 04:10:35;;;;;;;73.2;27.25;;;;;;;7.95;100;95238;;;;
2019/10/29 04:11:36;;;;;;;73.2;27.25;;;;;;;7.95;100;95238;;;;
2019/10/29 04:12:37;;;;;;;73.2;27.25;;;;;;;7.95;100;95238;;;;
2019/10/29 04:13:38;;;;;;;66.24999;27.35;;;;;;;7.99;100;95238.37;;;;
2019/10/29 04:14:40;;;;;;;66.24999;27.35;;;;;;;7.99;100;95238.37;;;;
2019/10/29 04:15:41;;;;;;;66.24999;27.35;;;;;;;7.99;100;95238.37;;;;
2019/10/29 04:16:52;;;;;;;66.24999;27.35;;;;;;;7.99;100;95238.37;;;;
2019/10/29 04:17:57;;;;;;;66.24999;27.35;;;;;;;7.99;100;95238.37;;;;
2019/10/29 04:18:59;;;;;;;66.24999;27.35;;;;;;;7.99;100;95238.37;;;;
2019/10/29 04:20:01;;;;;;;66.24999;27.35;;;;;;;7.99;100;95238.37;;;;
2019/10/29 04:21:03;;;;;;;66.24999;27.35;;;;;;;7.99;100;95238.37;;;;
2019/10/29 04:22:04;;;;;;;66.24999;27.35;;;;;;;7.99;100;95238.37;;;;
2019/10/29 04:23:06;;;;;;;66.24999;27.35;;;;;;;7.99;100;95238.37;;;;
2019/10/29 04:24:07;;;;;;;61.64999;27.55;;;;;;;7.99;100;95238.37;;;;
2019/10/29 04:25:08;;;;;;;61.64999;27.55;;;;;;;7.99;100;95238.37;;;;
2019/10/29 04:26:10;;;;;;;61.64999;27.55;;;;;;;7.99;100;95238.37;;;;
2019/10/29 04:27:11;;;;;;;61.64999;27.55;;;;;;;7.99;100;95238.37;;;;
2019/10/29 04:28:12;;;;;;;61.64999;27.55;;;;;;;7.99;100;95238.37;;;;
2019/10/29 04:29:13;;;;;;;61.64999;27.55;;;;;;;7.99;100;95238.37;;;;
2019/10/29 04:30:14;;;;;;;61.64999;27.55;;;;;;;7.99;100;95238.37;;;;
2019/10/29 04:33:52;;;;;;;61.64999;27.55;;;;;;;7.99;100;95238.37;;;;
2019/10/29 04:34:53;;;;;;;51.95;24.2;;;;;;;8.05;100;95240.19;;;;
2019/10/29 04:35:54;;;;;;;51.95;24.2;;;;;;;8.05;100;95240.19;;;;
2019/10/29 04:36:57;;;;;;;51.95;24.2;;;;;;;8.05;100;95240.19;;;;
2019/10/29 04:37:58;;;;;;;51.95;24.2;;;;;;;8.05;100;95240.19;;;;
2019/10/29 04:39:00;;;;;;;51.95;24.2;;;;;;;8.05;100;95240.19;;;;
2019/10/29 04:40:05;;;;;;;51.95;24.2;;;;;;;8.05;100;95240.19;;;;
2019/10/29 04:41:11;;;;;;;51.95;24.2;;;;;;;8.05;100;95240.19;;;;
2019/10/29 04:42:12;;;;;;;51.95;24.2;;;;;;;8.05;100;95240.19;;;;
2019/10/29 04:43:16;;;;;;;51.95;24.2;;;;;;;8.05;100;95240.19;;;;
2019/10/29 04:44:19;;;;;;;51.95;24.2;;;;;;;8.05;100;95240.19;;;;
2019/10/29 04:45:25;;;;;;;44.1;21.65;;;;;;;8.03;100;95240;;;;
2019/10/29 04:46:29;;;;;;;44.1;21.65;;;;;;;8.03;100;95240;;;;
2019/10/29 04:48:01;;;;;;;44.1;21.65;;;;;;;8.03;100;95240;;;;
2019/10/29 04:49:19;;;;;;;44.1;21.65;;;;;;;8.03;100;95240;;;;
2019/10/29 04:50:52;;;;;;;44.1;21.65;;;;;;;8.03;100;95240;;;;
2019/10/29 04:52:06;;;;;;;44.1;21.65;;;;;;;8.03;100;95240;;;;
2019/10/29 04:53:18;;;;;;;44.1;21.65;;;;;;;8.03;100;95240;;;;
2019/10/29 04:54:33;;;;;;;44.1;21.65;;;;;;;8.03;100;95240;;;;
2019/10/29 04:55:40;;;;;;;43.6;22.75;;;;;;;8.06;100;95240.48;;;;
2019/10/29 04:58:07;;;;;;;43.6;22.75;;;;;;;8.06;100;95240.48;;;;
2019/10/29 04:59:16;;;;;;;43.6;22.75;;;;;;;8.06;100;95240.48;;;;
2019/10/29 05:00:21;;;;;;;43.6;22.75;;;;;;;8.06;100;95240.48;;;;
2019/10/29 05:01:32;;;;;;;43.6;22.75;;;;;;;8.06;100;95240.48;;;;
2019/10/29 05:02:41;;;;;;;43.6;22.75;;;;;;;8.06;100;95240.48;;;;
2019/10/29 05:04:35;;;;;;;43.6;22.75;;;;;;;8.06;100;95240.48;;;;
2019/10/29 05:05:43;;;;;;;43.6;22.75;;;;;;;8.06;100;95240.48;;;;
2019/10/29 05:07:28;;;;;;;40.35;22.4;;;;;;;8.04;100;95244.45;;;;
2019/10/29 05:08:35;;;;;;;40.35;22.4;;;;;;;8.04;100;95244.45;;;;
2019/10/29 05:09:36;;;;;;;40.35;22.4;;;;;;;8.04;100;95244.45;;;;
2019/10/29 05:10:37;;;;;;;40.35;22.4;;;;;;;8.04;100;95244.45;;;;
2019/10/29 05:11:39;;;;;;;40.35;22.4;;;;;;;8.04;100;95244.45;;;;
2019/10/29 05:12:40;;;;;;;40.35;22.4;;;;;;;8.04;100;95244.45;;;;
2019/10/29 05:13:41;;;;;;;40.35;22.4;;;;;;;8.04;100;95244.45;;;;
2019/10/29 05:14:42;;;;;;;40.35;22.4;;;;;;;8.04;100;95244.45;;;;
2019/10/29 05:15:43;;;;;;;40.35;22.4;;;;;;;8.04;100;95244.45;;;;
2019/10/29 05:16:44;;;;;;;40.2;23.55;;;;;;;8.05;100;95231.3;;;;
2019/10/29 05:17:45;;;;;;;40.2;23.55;;;;;;;8.05;100;95231.3;;;;
2019/10/29 05:18:47;;;;;;;40.2;23.55;;;;;;;8.05;100;95231.3;;;;
2019/10/29 05:19:48;;;;;;;40.2;23.55;;;;;;;8.05;100;95231.3;;;;
2019/10/29 05:20:49;;;;;;;40.2;23.55;;;;;;;8.05;100;95231.3;;;;
2019/10/29 05:21:51;;;;;;;40.2;23.55;;;;;;;8.05;100;95231.3;;;;
2019/10/29 05:22:53;;;;;;;40.2;23.55;;;;;;;8.05;100;95231.3;;;;
2019/10/29 05:23:54;;;;;;;40.2;23.55;;;;;;;8.05;100;95231.3;;;;
2019/10/29 05:24:55;;;;;;;40.2;23.55;;;;;;;8.05;100;95231.3;;;;
2019/10/29 05:25:57;;;;;;;40.2;23.55;;;;;;;8.05;100;95231.3;;;;
2019/10/29 05:26:58;;;;;;;40.2;23.55;;;;;;;8.05;100;95231.3;;;;
2019/10/29 05:27:59;;;;;;;42.85001;24.15;;;;;;;8.02;100;95235.78;;;;
2019/10/29 05:29:00;;;;;;;42.85001;24.15;;;;;;;8.02;100;95235.78;;;;
2019/10/29 05:30:01;;;;;;;42.85001;24.15;;;;;;;8.02;100;95235.78;;;;
2019/10/29 05:31:03;;;;;;;42.85001;24.15;;;;;;;8.02;100;95235.78;;;;
2019/10/29 05:32:04;;;;;;;42.85001;24.15;;;;;;;8.02;100;95235.78;;;;
2019/10/29 05:33:06;;;;;;;42.85001;24.15;;;;;;;8.02;100;95235.78;;;;
2019/10/29 05:34:07;;;;;;;42.85001;24.15;;;;;;;8.02;100;95235.78;;;;
2019/10/29 05:35:08;;;;;;;42.85001;24.15;;;;;;;8.02;100;95235.78;;;;
2019/10/29 05:36:09;;;;;;;42.85001;24.15;;;;;;;8.02;100;95235.78;;;;
2019/10/29 05:37:11;;;;;;;42.85001;24.15;;;;;;;8.02;100;95235.78;;;;
2019/10/29 05:38:12;;;;;;;45;25.3;;;;;;;8.04;100;95234.49;;;;
2019/10/29 05:39:13;;;;;;;45;25.3;;;;;;;8.04;100;95234.49;;;;
2019/10/29 05:40:14;;;;;;;45;25.3;;;;;;;8.04;100;95234.49;;;;
2019/10/29 05:41:16;;;;;;;45;25.3;;;;;;;8.04;100;95234.49;;;;
2019/10/29 05:42:17;;;;;;;45;25.3;;;;;;;8.04;100;95234.49;;;;
2019/10/29 05:43:18;;;;;;;45;25.3;;;;;;;8.04;100;95234.49;;;;
2019/10/29 05:44:19;;;;;;;45;25.3;;;;;;;8.04;100;95234.49;;;;
2019/10/29 05:45:20;;;;;;;45;25.3;;;;;;;8.04;100;95234.49;;;;
2019/10/29 05:46:21;;;;;;;45;25.3;;;;;;;8.04;100;95234.49;;;;
2019/10/29 05:47:23;;;;;;;45;25.3;;;;;;;8.04;100;95234.49;;;;
2019/10/29 05:48:24;;;;;;;46.39999;26.4;;;;;;;8;100;95259.37;;;;
2019/10/29 05:49:25;;;;;;;46.39999;26.4;;;;;;;8;100;95259.37;;;;
2019/10/29 05:50:26;;;;;;;46.39999;26.4;;;;;;;8;100;95259.37;;;;
2019/10/29 05:51:27;;;;;;;46.39999;26.4;;;;;;;8;100;95259.37;;;;
2019/10/29 05:52:29;;;;;;;46.39999;26.4;;;;;;;8;100;95259.37;;;;
2019/10/29 05:53:30;;;;;;;46.39999;26.4;;;;;;;8;100;95259.37;;;;
2019/10/29 05:54:31;;;;;;;46.39999;26.4;;;;;;;8;100;95259.37;;;;
2019/10/29 05:55:32;;;;;;;46.39999;26.4;;;;;;;8;100;95259.37;;;;
2019/10/29 05:56:33;;;;;;;46.39999;26.4;;;;;;;8;100;95259.37;;;;
2019/10/29 05:57:34;;;;;;;46.39999;26.4;;;;;;;8;100;95259.37;;;;
2019/10/29 05:58:35;;;;;;;46.39999;26.4;;;;;;;8;100;95259.37;;;;
2019/10/29 05:59:37;;;;;;;47.6;28.25;;;;;;;7.98;100;95277.07;;;;
2019/10/29 06:00:38;;;;;;;47.6;28.25;;;;;;;7.98;100;95277.07;;;;
2019/10/29 06:01:39;;;;;;;47.6;28.25;;;;;;;7.98;100;95277.07;;;;
2019/10/29 06:02:40;;;;;;;47.6;28.25;;;;;;;7.98;100;95277.07;;;;
2019/10/29 06:03:41;;;;;;;47.6;28.25;;;;;;;7.98;100;95277.07;;;;
2019/10/29 06:04:42;;;;;;;47.6;28.25;;;;;;;7.98;100;95277.07;;;;
2019/10/29 06:05:43;;;;;;;47.6;28.25;;;;;;;7.98;100;95277.07;;;;
2019/10/29 06:06:44;;;;;;;47.6;28.25;;;;;;;7.98;100;95277.07;;;;
2019/10/29 06:07:45;;;;;;;47.6;28.25;;;;;;;7.98;100;95277.07;;;;
2019/10/29 06:08:47;;;;;;;47.6;28.25;;;;;;;7.98;100;95277.07;;;;
2019/10/29 06:09:50;;;;;;;57.59999;28.65;;;;;;;7.91;100;95288.4;;;;
2019/10/29 06:10:53;;;;;;;57.59999;28.65;;;;;;;7.91;100;95288.4;;;;
2019/10/29 06:11:55;;;;;;;57.59999;28.65;;;;;;;7.91;100;95288.4;;;;
2019/10/29 06:12:56;;;;;;;57.59999;28.65;;;;;;;7.91;100;95288.4;;;;
2019/10/29 06:13:57;;;;;;;57.59999;28.65;;;;;;;7.91;100;95288.4;;;;
2019/10/29 06:14:58;;;;;;;57.59999;28.65;;;;;;;7.91;100;95288.4;;;;
2019/10/29 06:16:00;;;;;;;57.59999;28.65;;;;;;;7.91;100;95288.4;;;;
2019/10/29 06:17:01;;;;;;;57.59999;28.65;;;;;;;7.91;100;95288.4;;;;
2019/10/29 06:18:02;;;;;;;57.59999;28.65;;;;;;;7.91;100;95288.4;;;;
2019/10/29 06:19:03;;;;;;;57.59999;28.65;;;;;;;7.91;100;95288.4;;;;
2019/10/29 06:20:04;;;;;;;52.55;28.75;;;;;;;7.9;100;95299.77;;;;
2019/10/29 06:21:05;;;;;;;52.55;28.75;;;;;;;7.9;100;95299.77;;;;
2019/10/29 06:22:07;;;;;;;52.55;28.75;;;;;;;7.9;100;95299.77;;;;
2019/10/29 06:23:08;;;;;;;52.55;28.75;;;;;;;7.9;100;95299.77;;;;
2019/10/29 06:24:09;;;;;;;52.55;28.75;;;;;;;7.9;100;95299.77;;;;
2019/10/29 06:25:10;;;;;;;52.55;28.75;;;;;;;7.9;100;95299.77;;;;
2019/10/29 06:26:11;;;;;;;52.55;28.75;;;;;;;7.9;100;95299.77;;;;
2019/10/29 06:27:12;;;;;;;52.55;28.75;;;;;;;7.9;100;95299.77;;;;
2019/10/29 06:28:13;;;;;;;52.55;28.75;;;;;;;7.9;100;95299.77;;;;
2019/10/29 06:29:14;;;;;;;52.55;28.75;;;;;;;7.9;100;95299.77;;;;
2019/10/29 06:30:16;;;;;;;52.55;28.75;;;;;;;7.9;100;95299.77;;;;